sensor_id;sensor_type;location;lat;lon;timestamp;P1;durP1;ratioP1;P2;durP2;ratioP2
2386;SDS011;49473;50.772;8.768;2023-11-19T00:00:14;7.90;;;7.20;;
2386;SDS011;49473;50.772;8.768;2023-11-19T00:02:42;7.33;;;6.70;;
2386;SDS011;49473;50.772;8.768;2023-11-19T00:05:09;7.67;;;7.07;;
2386;SDS011;49473;50.772;8.768;2023-11-19T00:07:36;7.27;;;6.67;;
2386;SDS011;49473;50.772;8.768;2023-11-19T00:10:06;7.83;;;7.10;;
2386;SDS011;49473;50.772;8.768;2023-11-19T00:12:35;7.77;;;7.17;;
2386;SDS011;49473;50.772;8.768;2023-11-19T00:15:05;8.97;;;8.17;;
2386;SDS011;49473;50.772;8.768;2023-11-19T00:17:36;8.33;;;7.57;;
2386;SDS011;49473;50.772;8.768;2023-11-19T00:20:03;7.50;;;6.90;;
2386;SDS011;49473;50.772;8.768;2023-11-19T00:22:31;7.40;;;6.70;;
2386;SDS011;49473;50.772;8.768;2023-11-19T00:24:58;8.40;;;7.70;;
2386;SDS011;49473;50.772;8.768;2023-11-19T00:27:25;8.10;;;7.50;;
2386;SDS011;49473;50.772;8.768;2023-11-19T00:29:52;8.53;;;7.83;;
2386;SDS011;49473;50.772;8.768;2023-11-19T00:32:20;8.00;;;7.20;;
2386;SDS011;49473;50.772;8.768;2023-11-19T00:34:47;7.90;;;7.30;;
2386;SDS011;49473;50.772;8.768;2023-11-19T00:37:13;7.03;;;6.53;;
2386;SDS011;49473;50.772;8.768;2023-11-19T00:39:40;7.40;;;6.80;;
2386;SDS011;49473;50.772;8.768;2023-11-19T00:42:07;9.30;;;8.50;;
2386;SDS011;49473;50.772;8.768;2023-11-19T00:44:35;10.00;;;9.10;;
2386;SDS011;49473;50.772;8.768;2023-11-19T00:47:02;9.17;;;8.47;;
2386;SDS011;49473;50.772;8.768;2023-11-19T00:49:31;9.03;;;8.30;;
2386;SDS011;49473;50.772;8.768;2023-11-19T00:51:58;9.17;;;8.30;;
2386;SDS011;49473;50.772;8.768;2023-11-19T00:54:27;8.77;;;8.07;;
2386;SDS011;49473;50.772;8.768;2023-11-19T00:56:53;10.33;;;9.33;;
2386;SDS011;49473;50.772;8.768;2023-11-19T00:59:20;9.93;;;9.10;;
2386;SDS011;49473;50.772;8.768;2023-11-19T01:01:47;11.03;;;9.93;;
2386;SDS011;49473;50.772;8.768;2023-11-19T01:04:16;11.30;;;10.30;;
2386;SDS011;49473;50.772;8.768;2023-11-19T01:06:44;10.17;;;9.17;;
2386;SDS011;49473;50.772;8.768;2023-11-19T01:09:11;9.57;;;8.73;;
2386;SDS011;49473;50.772;8.768;2023-11-19T01:11:38;11.37;;;10.30;;
2386;SDS011;49473;50.772;8.768;2023-11-19T01:14:04;12.87;;;11.67;;
2386;SDS011;49473;50.772;8.768;2023-11-19T01:16:31;13.47;;;12.17;;
2386;SDS011;49473;50.772;8.768;2023-11-19T01:18:58;15.33;;;13.70;;
2386;SDS011;49473;50.772;8.768;2023-11-19T01:21:29;11.67;;;10.57;;
2386;SDS011;49473;50.772;8.768;2023-11-19T01:23:57;13.00;;;10.90;;
2386;SDS011;49473;50.772;8.768;2023-11-19T01:26:24;11.00;;;9.90;;
2386;SDS011;49473;50.772;8.768;2023-11-19T01:28:51;12.43;;;11.23;;
2386;SDS011;49473;50.772;8.768;2023-11-19T01:31:18;11.93;;;10.70;;
2386;SDS011;49473;50.772;8.768;2023-11-19T01:33:45;13.47;;;12.07;;
2386;SDS011;49473;50.772;8.768;2023-11-19T01:36:12;12.90;;;11.67;;
2386;SDS011;49473;50.772;8.768;2023-11-19T01:38:39;12.67;;;11.57;;
2386;SDS011;49473;50.772;8.768;2023-11-19T01:41:08;14.43;;;11.37;;
2386;SDS011;49473;50.772;8.768;2023-11-19T01:43:35;16.40;;;11.30;;
2386;SDS011;49473;50.772;8.768;2023-11-19T01:46:04;11.00;;;10.00;;
2386;SDS011;49473;50.772;8.768;2023-11-19T01:48:32;10.80;;;9.80;;
2386;SDS011;49473;50.772;8.768;2023-11-19T01:51:01;12.73;;;11.60;;
2386;SDS011;49473;50.772;8.768;2023-11-19T01:53:30;12.73;;;11.43;;
2386;SDS011;49473;50.772;8.768;2023-11-19T01:55:58;13.37;;;11.13;;
2386;SDS011;49473;50.772;8.768;2023-11-19T01:58:26;10.70;;;9.80;;
2386;SDS011;49473;50.772;8.768;2023-11-19T02:00:55;10.70;;;9.70;;
2386;SDS011;49473;50.772;8.768;2023-11-19T02:03:23;11.17;;;10.17;;
2386;SDS011;49473;50.772;8.768;2023-11-19T02:05:51;9.67;;;8.67;;
2386;SDS011;49473;50.772;8.768;2023-11-19T02:08:18;9.27;;;8.37;;
2386;SDS011;49473;50.772;8.768;2023-11-19T02:10:45;8.80;;;8.00;;
2386;SDS011;49473;50.772;8.768;2023-11-19T02:13:12;9.10;;;8.20;;
2386;SDS011;49473;50.772;8.768;2023-11-19T02:15:42;8.30;;;6.70;;
2386;SDS011;49473;50.772;8.768;2023-11-19T02:18:21;7.23;;;6.63;;
2386;SDS011;49473;50.772;8.768;2023-11-19T02:20:49;7.43;;;6.83;;
2386;SDS011;49473;50.772;8.768;2023-11-19T02:23:16;11.40;;;10.30;;
2386;SDS011;49473;50.772;8.768;2023-11-19T02:25:45;10.60;;;9.50;;
2386;SDS011;49473;50.772;8.768;2023-11-19T02:28:19;11.83;;;10.73;;
2386;SDS011;49473;50.772;8.768;2023-11-19T02:30:47;11.60;;;10.63;;
2386;SDS011;49473;50.772;8.768;2023-11-19T02:33:13;10.13;;;9.33;;
2386;SDS011;49473;50.772;8.768;2023-11-19T02:35:40;10.40;;;9.50;;
2386;SDS011;49473;50.772;8.768;2023-11-19T02:38:07;10.13;;;9.13;;
2386;SDS011;49473;50.772;8.768;2023-11-19T02:40:34;10.53;;;9.50;;
2386;SDS011;49473;50.772;8.768;2023-11-19T02:43:00;10.27;;;9.27;;
2386;SDS011;49473;50.772;8.768;2023-11-19T02:45:31;10.43;;;9.43;;
2386;SDS011;49473;50.772;8.768;2023-11-19T02:47:58;10.30;;;9.20;;
2386;SDS011;49473;50.772;8.768;2023-11-19T02:50:26;10.30;;;9.30;;
2386;SDS011;49473;50.772;8.768;2023-11-19T02:52:53;9.73;;;8.83;;
2386;SDS011;49473;50.772;8.768;2023-11-19T02:55:22;9.43;;;8.40;;
2386;SDS011;49473;50.772;8.768;2023-11-19T02:57:50;9.77;;;8.77;;
2386;SDS011;49473;50.772;8.768;2023-11-19T03:00:18;10.40;;;9.40;;
2386;SDS011;49473;50.772;8.768;2023-11-19T03:02:50;10.33;;;9.40;;
2386;SDS011;49473;50.772;8.768;2023-11-19T03:05:24;9.60;;;8.70;;
2386;SDS011;49473;50.772;8.768;2023-11-19T03:07:55;10.13;;;8.93;;
2386;SDS011;49473;50.772;8.768;2023-11-19T03:10:22;7.70;;;7.10;;
2386;SDS011;49473;50.772;8.768;2023-11-19T03:12:49;6.20;;;5.70;;
2386;SDS011;49473;50.772;8.768;2023-11-19T03:15:16;6.00;;;5.50;;
2386;SDS011;49473;50.772;8.768;2023-11-19T03:17:42;5.87;;;5.37;;
2386;SDS011;49473;50.772;8.768;2023-11-19T03:20:11;4.73;;;4.43;;
2386;SDS011;49473;50.772;8.768;2023-11-19T03:22:40;4.67;;;4.27;;
2386;SDS011;49473;50.772;8.768;2023-11-19T03:25:07;6.93;;;5.53;;
2386;SDS011;49473;50.772;8.768;2023-11-19T03:27:34;6.90;;;6.40;;
2386;SDS011;49473;50.772;8.768;2023-11-19T03:30:02;5.47;;;4.97;;
2386;SDS011;49473;50.772;8.768;2023-11-19T03:32:30;6.27;;;5.67;;
2386;SDS011;49473;50.772;8.768;2023-11-19T03:34:57;4.30;;;4.00;;
2386;SDS011;49473;50.772;8.768;2023-11-19T03:37:25;4.73;;;3.67;;
2386;SDS011;49473;50.772;8.768;2023-11-19T03:39:53;3.47;;;3.17;;
2386;SDS011;49473;50.772;8.768;2023-11-19T03:42:19;4.07;;;2.57;;
2386;SDS011;49473;50.772;8.768;2023-11-19T03:44:46;4.30;;;2.93;;
2386;SDS011;49473;50.772;8.768;2023-11-19T03:47:14;2.63;;;2.53;;
2386;SDS011;49473;50.772;8.768;2023-11-19T03:49:41;2.90;;;2.70;;
2386;SDS011;49473;50.772;8.768;2023-11-19T03:52:09;2.77;;;2.57;;
2386;SDS011;49473;50.772;8.768;2023-11-19T03:54:37;2.97;;;2.80;;
2386;SDS011;49473;50.772;8.768;2023-11-19T03:57:04;2.70;;;2.57;;
2386;SDS011;49473;50.772;8.768;2023-11-19T03:59:30;2.17;;;2.07;;
2386;SDS011;49473;50.772;8.768;2023-11-19T04:01:58;2.17;;;2.07;;
2386;SDS011;49473;50.772;8.768;2023-11-19T04:04:25;2.50;;;2.40;;
2386;SDS011;49473;50.772;8.768;2023-11-19T04:06:52;2.67;;;2.47;;
2386;SDS011;49473;50.772;8.768;2023-11-19T04:09:19;2.73;;;2.53;;
2386;SDS011;49473;50.772;8.768;2023-11-19T04:11:47;2.47;;;2.33;;
2386;SDS011;49473;50.772;8.768;2023-11-19T04:14:14;2.70;;;2.60;;
2386;SDS011;49473;50.772;8.768;2023-11-19T04:16:43;3.00;;;2.80;;
2386;SDS011;49473;50.772;8.768;2023-11-19T04:19:10;3.10;;;2.90;;
2386;SDS011;49473;50.772;8.768;2023-11-19T04:21:36;2.90;;;2.70;;
2386;SDS011;49473;50.772;8.768;2023-11-19T04:24:06;2.90;;;2.70;;
2386;SDS011;49473;50.772;8.768;2023-11-19T04:26:33;3.00;;;2.80;;
2386;SDS011;49473;50.772;8.768;2023-11-19T04:29:03;3.37;;;3.17;;
2386;SDS011;49473;50.772;8.768;2023-11-19T04:31:29;3.20;;;3.00;;
2386;SDS011;49473;50.772;8.768;2023-11-19T04:33:57;3.40;;;3.20;;
2386;SDS011;49473;50.772;8.768;2023-11-19T04:36:25;3.07;;;2.87;;
2386;SDS011;49473;50.772;8.768;2023-11-19T04:38:52;2.87;;;2.67;;
2386;SDS011;49473;50.772;8.768;2023-11-19T04:41:19;2.70;;;2.50;;
2386;SDS011;49473;50.772;8.768;2023-11-19T04:43:45;2.60;;;2.40;;
2386;SDS011;49473;50.772;8.768;2023-11-19T04:46:13;2.80;;;2.60;;
2386;SDS011;49473;50.772;8.768;2023-11-19T04:48:41;2.17;;;2.07;;
2386;SDS011;49473;50.772;8.768;2023-11-19T04:51:08;2.37;;;2.23;;
2386;SDS011;49473;50.772;8.768;2023-11-19T04:53:35;1.97;;;1.87;;
2386;SDS011;49473;50.772;8.768;2023-11-19T04:56:07;2.40;;;1.80;;
2386;SDS011;49473;50.772;8.768;2023-11-19T04:58:34;2.57;;;1.90;;
2386;SDS011;49473;50.772;8.768;2023-11-19T05:01:00;1.50;;;1.50;;
2386;SDS011;49473;50.772;8.768;2023-11-19T05:03:30;2.53;;;2.17;;
2386;SDS011;49473;50.772;8.768;2023-11-19T05:05:56;2.33;;;2.10;;
2386;SDS011;49473;50.772;8.768;2023-11-19T05:08:23;2.23;;;2.13;;
2386;SDS011;49473;50.772;8.768;2023-11-19T05:10:50;2.27;;;2.00;;
2386;SDS011;49473;50.772;8.768;2023-11-19T05:13:17;2.77;;;2.47;;
2386;SDS011;49473;50.772;8.768;2023-11-19T05:15:43;2.10;;;2.00;;
2386;SDS011;49473;50.772;8.768;2023-11-19T05:18:10;1.90;;;1.80;;
2386;SDS011;49473;50.772;8.768;2023-11-19T05:20:38;3.67;;;2.60;;
2386;SDS011;49473;50.772;8.768;2023-11-19T05:23:05;2.13;;;1.93;;
2386;SDS011;49473;50.772;8.768;2023-11-19T05:25:32;2.20;;;2.00;;
2386;SDS011;49473;50.772;8.768;2023-11-19T05:27:58;2.30;;;2.20;;
2386;SDS011;49473;50.772;8.768;2023-11-19T05:30:26;1.90;;;1.80;;
2386;SDS011;49473;50.772;8.768;2023-11-19T05:32:53;3.00;;;2.50;;
2386;SDS011;49473;50.772;8.768;2023-11-19T05:35:20;2.30;;;2.10;;
2386;SDS011;49473;50.772;8.768;2023-11-19T05:37:48;2.63;;;2.40;;
2386;SDS011;49473;50.772;8.768;2023-11-19T05:40:15;2.00;;;1.90;;
2386;SDS011;49473;50.772;8.768;2023-11-19T05:42:42;3.00;;;2.00;;
2386;SDS011;49473;50.772;8.768;2023-11-19T05:45:11;3.37;;;2.00;;
2386;SDS011;49473;50.772;8.768;2023-11-19T05:47:38;1.90;;;1.80;;
2386;SDS011;49473;50.772;8.768;2023-11-19T05:50:06;2.80;;;1.70;;
2386;SDS011;49473;50.772;8.768;2023-11-19T05:52:33;2.20;;;1.57;;
2386;SDS011;49473;50.772;8.768;2023-11-19T05:55:02;2.13;;;1.63;;
2386;SDS011;49473;50.772;8.768;2023-11-19T05:57:34;1.50;;;1.40;;
2386;SDS011;49473;50.772;8.768;2023-11-19T06:00:01;1.90;;;1.50;;
2386;SDS011;49473;50.772;8.768;2023-11-19T06:02:28;1.60;;;1.50;;
2386;SDS011;49473;50.772;8.768;2023-11-19T06:04:55;1.90;;;1.80;;
2386;SDS011;49473;50.772;8.768;2023-11-19T06:07:22;2.07;;;1.83;;
2386;SDS011;49473;50.772;8.768;2023-11-19T06:09:48;1.83;;;1.73;;
2386;SDS011;49473;50.772;8.768;2023-11-19T06:12:16;1.90;;;1.80;;
2386;SDS011;49473;50.772;8.768;2023-11-19T06:14:43;1.63;;;1.53;;
2386;SDS011;49473;50.772;8.768;2023-11-19T06:17:10;1.90;;;1.80;;
2386;SDS011;49473;50.772;8.768;2023-11-19T06:19:37;2.10;;;2.00;;
2386;SDS011;49473;50.772;8.768;2023-11-19T06:22:04;1.97;;;1.87;;
2386;SDS011;49473;50.772;8.768;2023-11-19T06:24:31;2.90;;;1.70;;
2386;SDS011;49473;50.772;8.768;2023-11-19T06:26:58;1.90;;;1.57;;
2386;SDS011;49473;50.772;8.768;2023-11-19T06:29:26;1.60;;;1.27;;
2386;SDS011;49473;50.772;8.768;2023-11-19T06:31:53;2.83;;;1.23;;
2386;SDS011;49473;50.772;8.768;2023-11-19T06:34:20;1.67;;;1.17;;
2386;SDS011;49473;50.772;8.768;2023-11-19T06:36:47;1.83;;;1.20;;
2386;SDS011;49473;50.772;8.768;2023-11-19T06:39:14;1.40;;;1.30;;
2386;SDS011;49473;50.772;8.768;2023-11-19T06:41:44;3.13;;;1.30;;
2386;SDS011;49473;50.772;8.768;2023-11-19T06:44:11;2.60;;;1.07;;
2386;SDS011;49473;50.772;8.768;2023-11-19T06:46:39;2.37;;;1.60;;
2386;SDS011;49473;50.772;8.768;2023-11-19T06:49:06;1.40;;;1.30;;
2386;SDS011;49473;50.772;8.768;2023-11-19T06:51:33;2.77;;;1.73;;
2386;SDS011;49473;50.772;8.768;2023-11-19T06:54:00;1.47;;;1.20;;
2386;SDS011;49473;50.772;8.768;2023-11-19T06:56:27;2.43;;;1.53;;
2386;SDS011;49473;50.772;8.768;2023-11-19T06:58:53;4.03;;;1.77;;
2386;SDS011;49473;50.772;8.768;2023-11-19T07:01:20;2.83;;;1.37;;
2386;SDS011;49473;50.772;8.768;2023-11-19T07:03:48;2.97;;;1.37;;
2386;SDS011;49473;50.772;8.768;2023-11-19T07:06:16;3.70;;;2.63;;
2386;SDS011;49473;50.772;8.768;2023-11-19T07:08:43;3.53;;;1.57;;
2386;SDS011;49473;50.772;8.768;2023-11-19T07:11:10;4.77;;;1.03;;
2386;SDS011;49473;50.772;8.768;2023-11-19T07:13:38;2.77;;;1.47;;
2386;SDS011;49473;50.772;8.768;2023-11-19T07:16:06;2.97;;;1.50;;
2386;SDS011;49473;50.772;8.768;2023-11-19T07:18:34;2.00;;;1.50;;
2386;SDS011;49473;50.772;8.768;2023-11-19T07:21:03;3.07;;;1.60;;
2386;SDS011;49473;50.772;8.768;2023-11-19T07:23:30;3.37;;;1.03;;
2386;SDS011;49473;50.772;8.768;2023-11-19T07:25:58;2.43;;;1.13;;
2386;SDS011;49473;50.772;8.768;2023-11-19T07:28:24;2.30;;;1.80;;
2386;SDS011;49473;50.772;8.768;2023-11-19T07:30:54;3.47;;;2.47;;
2386;SDS011;49473;50.772;8.768;2023-11-19T07:33:22;3.80;;;2.20;;
2386;SDS011;49473;50.772;8.768;2023-11-19T07:35:48;2.67;;;1.80;;
2386;SDS011;49473;50.772;8.768;2023-11-19T07:38:17;2.87;;;1.43;;
2386;SDS011;49473;50.772;8.768;2023-11-19T07:40:44;5.30;;;3.20;;
2386;SDS011;49473;50.772;8.768;2023-11-19T07:43:11;6.83;;;3.60;;
2386;SDS011;49473;50.772;8.768;2023-11-19T07:45:38;2.67;;;2.00;;
2386;SDS011;49473;50.772;8.768;2023-11-19T07:48:05;7.20;;;2.40;;
2386;SDS011;49473;50.772;8.768;2023-11-19T07:50:32;3.97;;;1.60;;
2386;SDS011;49473;50.772;8.768;2023-11-19T07:52:59;2.63;;;1.60;;
2386;SDS011;49473;50.772;8.768;2023-11-19T07:55:28;4.93;;;2.00;;
2386;SDS011;49473;50.772;8.768;2023-11-19T07:57:55;4.00;;;1.50;;
2386;SDS011;49473;50.772;8.768;2023-11-19T08:00:22;6.30;;;2.20;;
2386;SDS011;49473;50.772;8.768;2023-11-19T08:02:48;6.07;;;1.93;;
2386;SDS011;49473;50.772;8.768;2023-11-19T08:05:15;4.37;;;1.60;;
2386;SDS011;49473;50.772;8.768;2023-11-19T08:07:42;5.93;;;1.90;;
2386;SDS011;49473;50.772;8.768;2023-11-19T08:10:09;4.13;;;1.60;;
2386;SDS011;49473;50.772;8.768;2023-11-19T08:12:37;6.37;;;1.60;;
2386;SDS011;49473;50.772;8.768;2023-11-19T08:15:04;2.93;;;1.70;;
2386;SDS011;49473;50.772;8.768;2023-11-19T08:17:32;5.03;;;1.97;;
2386;SDS011;49473;50.772;8.768;2023-11-19T08:19:58;5.27;;;2.30;;
2386;SDS011;49473;50.772;8.768;2023-11-19T08:22:26;2.93;;;1.50;;
2386;SDS011;49473;50.772;8.768;2023-11-19T08:24:52;6.43;;;2.17;;
2386;SDS011;49473;50.772;8.768;2023-11-19T08:27:19;7.60;;;2.00;;
2386;SDS011;49473;50.772;8.768;2023-11-19T08:29:53;8.20;;;1.73;;
2386;SDS011;49473;50.772;8.768;2023-11-19T08:32:20;5.40;;;1.47;;
2386;SDS011;49473;50.772;8.768;2023-11-19T08:34:47;5.03;;;1.57;;
2386;SDS011;49473;50.772;8.768;2023-11-19T08:37:14;2.07;;;1.30;;
2386;SDS011;49473;50.772;8.768;2023-11-19T08:39:43;4.67;;;1.23;;
2386;SDS011;49473;50.772;8.768;2023-11-19T08:42:09;3.73;;;1.17;;
2386;SDS011;49473;50.772;8.768;2023-11-19T08:44:36;2.70;;;1.13;;
2386;SDS011;49473;50.772;8.768;2023-11-19T08:47:04;3.10;;;1.17;;
2386;SDS011;49473;50.772;8.768;2023-11-19T08:49:31;3.90;;;1.27;;
2386;SDS011;49473;50.772;8.768;2023-11-19T08:51:58;5.63;;;1.40;;
2386;SDS011;49473;50.772;8.768;2023-11-19T08:54:25;6.33;;;1.70;;
2386;SDS011;49473;50.772;8.768;2023-11-19T08:56:52;6.20;;;1.93;;
2386;SDS011;49473;50.772;8.768;2023-11-19T08:59:18;5.20;;;1.77;;
2386;SDS011;49473;50.772;8.768;2023-11-19T09:01:45;3.57;;;1.73;;
2386;SDS011;49473;50.772;8.768;2023-11-19T09:04:13;4.70;;;1.40;;
2386;SDS011;49473;50.772;8.768;2023-11-19T09:06:41;4.40;;;1.60;;
2386;SDS011;49473;50.772;8.768;2023-11-19T09:09:09;7.43;;;2.20;;
2386;SDS011;49473;50.772;8.768;2023-11-19T09:11:35;7.53;;;2.10;;
2386;SDS011;49473;50.772;8.768;2023-11-19T09:14:03;7.67;;;2.40;;
2386;SDS011;49473;50.772;8.768;2023-11-19T09:16:30;8.07;;;2.63;;
2386;SDS011;49473;50.772;8.768;2023-11-19T09:18:58;7.40;;;2.63;;
2386;SDS011;49473;50.772;8.768;2023-11-19T09:21:26;10.87;;;2.70;;
2386;SDS011;49473;50.772;8.768;2023-11-19T09:23:54;8.60;;;2.03;;
2386;SDS011;49473;50.772;8.768;2023-11-19T09:26:21;12.00;;;3.57;;
2386;SDS011;49473;50.772;8.768;2023-11-19T09:28:48;9.87;;;3.20;;
2386;SDS011;49473;50.772;8.768;2023-11-19T09:31:14;6.43;;;2.93;;
2386;SDS011;49473;50.772;8.768;2023-11-19T09:33:41;11.50;;;2.90;;
2386;SDS011;49473;50.772;8.768;2023-11-19T09:36:09;11.27;;;2.90;;
2386;SDS011;49473;50.772;8.768;2023-11-19T09:38:40;12.50;;;2.97;;
2386;SDS011;49473;50.772;8.768;2023-11-19T09:41:07;7.50;;;2.47;;
2386;SDS011;49473;50.772;8.768;2023-11-19T09:43:37;16.00;;;3.53;;
2386;SDS011;49473;50.772;8.768;2023-11-19T09:46:05;12.93;;;3.17;;
2386;SDS011;49473;50.772;8.768;2023-11-19T09:48:34;9.87;;;2.97;;
2386;SDS011;49473;50.772;8.768;2023-11-19T09:51:03;9.53;;;2.80;;
2386;SDS011;49473;50.772;8.768;2023-11-19T09:53:31;8.40;;;2.53;;
2386;SDS011;49473;50.772;8.768;2023-11-19T09:56:00;13.10;;;3.17;;
2386;SDS011;49473;50.772;8.768;2023-11-19T09:58:28;13.70;;;2.80;;
2386;SDS011;49473;50.772;8.768;2023-11-19T10:00:55;8.53;;;2.50;;
2386;SDS011;49473;50.772;8.768;2023-11-19T10:03:24;8.03;;;3.20;;
2386;SDS011;49473;50.772;8.768;2023-11-19T10:05:52;7.57;;;2.70;;
2386;SDS011;49473;50.772;8.768;2023-11-19T10:08:21;3.30;;;1.80;;
2386;SDS011;49473;50.772;8.768;2023-11-19T10:10:48;5.77;;;2.20;;
2386;SDS011;49473;50.772;8.768;2023-11-19T10:13:16;4.83;;;2.20;;
2386;SDS011;49473;50.772;8.768;2023-11-19T10:15:43;9.10;;;2.53;;
2386;SDS011;49473;50.772;8.768;2023-11-19T10:18:10;3.87;;;1.77;;
2386;SDS011;49473;50.772;8.768;2023-11-19T10:20:37;4.67;;;1.93;;
2386;SDS011;49473;50.772;8.768;2023-11-19T10:23:06;8.60;;;2.67;;
2386;SDS011;49473;50.772;8.768;2023-11-19T10:25:33;7.37;;;2.90;;
2386;SDS011;49473;50.772;8.768;2023-11-19T10:28:01;9.13;;;2.63;;
2386;SDS011;49473;50.772;8.768;2023-11-19T10:30:30;6.33;;;2.93;;
2386;SDS011;49473;50.772;8.768;2023-11-19T10:33:05;6.83;;;2.20;;
2386;SDS011;49473;50.772;8.768;2023-11-19T10:35:32;4.70;;;2.37;;
2386;SDS011;49473;50.772;8.768;2023-11-19T10:38:00;7.37;;;2.43;;
2386;SDS011;49473;50.772;8.768;2023-11-19T10:40:39;8.67;;;3.00;;
2386;SDS011;49473;50.772;8.768;2023-11-19T10:43:06;7.00;;;2.23;;
2386;SDS011;49473;50.772;8.768;2023-11-19T10:45:35;7.70;;;3.00;;
2386;SDS011;49473;50.772;8.768;2023-11-19T10:48:02;4.73;;;2.60;;
2386;SDS011;49473;50.772;8.768;2023-11-19T10:50:31;12.20;;;3.10;;
2386;SDS011;49473;50.772;8.768;2023-11-19T10:52:58;6.47;;;2.70;;
2386;SDS011;49473;50.772;8.768;2023-11-19T10:55:26;8.17;;;2.63;;
2386;SDS011;49473;50.772;8.768;2023-11-19T10:57:56;8.70;;;3.10;;
2386;SDS011;49473;50.772;8.768;2023-11-19T11:00:25;9.50;;;2.53;;
2386;SDS011;49473;50.772;8.768;2023-11-19T11:02:56;12.03;;;3.00;;
2386;SDS011;49473;50.772;8.768;2023-11-19T11:05:27;6.90;;;2.50;;
2386;SDS011;49473;50.772;8.768;2023-11-19T11:07:55;10.80;;;2.67;;
2386;SDS011;49473;50.772;8.768;2023-11-19T11:10:23;8.10;;;2.37;;
2386;SDS011;49473;50.772;8.768;2023-11-19T11:12:52;8.33;;;2.90;;
2386;SDS011;49473;50.772;8.768;2023-11-19T11:15:24;8.00;;;2.80;;
2386;SDS011;49473;50.772;8.768;2023-11-19T11:17:54;11.40;;;2.80;;
2386;SDS011;49473;50.772;8.768;2023-11-19T11:20:26;9.10;;;2.87;;
2386;SDS011;49473;50.772;8.768;2023-11-19T11:23:10;9.23;;;3.03;;
2386;SDS011;49473;50.772;8.768;2023-11-19T11:26:13;15.90;;;3.20;;
2386;SDS011;49473;50.772;8.768;2023-11-19T11:28:59;9.97;;;2.63;;
2386;SDS011;49473;50.772;8.768;2023-11-19T11:31:31;10.50;;;3.47;;
2386;SDS011;49473;50.772;8.768;2023-11-19T11:34:09;10.67;;;3.00;;
2386;SDS011;49473;50.772;8.768;2023-11-19T11:37:10;8.80;;;3.07;;
2386;SDS011;49473;50.772;8.768;2023-11-19T11:39:41;11.03;;;3.83;;
2386;SDS011;49473;50.772;8.768;2023-11-19T11:44:57;11.90;;;3.37;;
2386;SDS011;49473;50.772;8.768;2023-11-19T11:47:26;9.30;;;3.17;;
2386;SDS011;49473;50.772;8.768;2023-11-19T11:50:16;9.93;;;3.40;;
2386;SDS011;49473;50.772;8.768;2023-11-19T11:55:57;15.83;;;3.87;;
2386;SDS011;49473;50.772;8.768;2023-11-19T11:58:29;7.80;;;3.23;;
2386;SDS011;49473;50.772;8.768;2023-11-19T12:01:01;10.17;;;2.93;;
2386;SDS011;49473;50.772;8.768;2023-11-19T12:03:30;5.87;;;2.63;;
2386;SDS011;49473;50.772;8.768;2023-11-19T12:05:59;6.80;;;2.83;;
2386;SDS011;49473;50.772;8.768;2023-11-19T12:08:26;6.93;;;2.47;;
2386;SDS011;49473;50.772;8.768;2023-11-19T12:10:55;10.63;;;3.33;;
2386;SDS011;49473;50.772;8.768;2023-11-19T12:13:24;6.33;;;2.43;;
2386;SDS011;49473;50.772;8.768;2023-11-19T12:16:09;8.30;;;3.20;;
2386;SDS011;49473;50.772;8.768;2023-11-19T12:18:38;9.07;;;3.03;;
2386;SDS011;49473;50.772;8.768;2023-11-19T12:21:08;8.73;;;3.07;;
2386;SDS011;49473;50.772;8.768;2023-11-19T12:23:44;12.37;;;4.37;;
2386;SDS011;49473;50.772;8.768;2023-11-19T12:26:31;9.47;;;3.30;;
2386;SDS011;49473;50.772;8.768;2023-11-19T12:29:06;10.30;;;3.00;;
2386;SDS011;49473;50.772;8.768;2023-11-19T12:31:33;11.43;;;3.77;;
2386;SDS011;49473;50.772;8.768;2023-11-19T12:34:09;8.40;;;3.03;;
2386;SDS011;49473;50.772;8.768;2023-11-19T12:36:39;9.50;;;3.60;;
2386;SDS011;49473;50.772;8.768;2023-11-19T12:39:07;9.03;;;3.20;;
2386;SDS011;49473;50.772;8.768;2023-11-19T12:41:53;10.80;;;3.03;;
2386;SDS011;49473;50.772;8.768;2023-11-19T12:44:20;11.03;;;3.20;;
2386;SDS011;49473;50.772;8.768;2023-11-19T12:46:58;13.27;;;3.60;;
2386;SDS011;49473;50.772;8.768;2023-11-19T12:49:29;5.53;;;2.63;;
2386;SDS011;49473;50.772;8.768;2023-11-19T12:51:58;11.20;;;3.53;;
2386;SDS011;49473;50.772;8.768;2023-11-19T12:54:31;9.83;;;2.93;;
2386;SDS011;49473;50.772;8.768;2023-11-19T12:56:59;12.10;;;3.13;;
2386;SDS011;49473;50.772;8.768;2023-11-19T12:59:27;9.80;;;2.87;;
2386;SDS011;49473;50.772;8.768;2023-11-19T13:01:54;10.67;;;3.53;;
2386;SDS011;49473;50.772;8.768;2023-11-19T13:04:21;7.20;;;2.97;;
2386;SDS011;49473;50.772;8.768;2023-11-19T13:06:49;9.77;;;3.17;;
2386;SDS011;49473;50.772;8.768;2023-11-19T13:09:24;10.40;;;3.00;;
2386;SDS011;49473;50.772;8.768;2023-11-19T13:11:51;10.03;;;2.90;;
2386;SDS011;49473;50.772;8.768;2023-11-19T13:14:19;9.37;;;3.10;;
2386;SDS011;49473;50.772;8.768;2023-11-19T13:16:46;15.63;;;3.90;;
2386;SDS011;49473;50.772;8.768;2023-11-19T13:19:13;6.93;;;2.50;;
2386;SDS011;49473;50.772;8.768;2023-11-19T13:21:43;5.93;;;2.63;;
2386;SDS011;49473;50.772;8.768;2023-11-19T13:24:12;8.40;;;2.90;;
2386;SDS011;49473;50.772;8.768;2023-11-19T13:26:40;7.50;;;2.87;;
2386;SDS011;49473;50.772;8.768;2023-11-19T13:29:07;7.40;;;2.53;;
2386;SDS011;49473;50.772;8.768;2023-11-19T13:31:35;10.70;;;3.50;;
2386;SDS011;49473;50.772;8.768;2023-11-19T13:34:02;12.83;;;3.20;;
2386;SDS011;49473;50.772;8.768;2023-11-19T13:36:29;8.47;;;2.80;;
2386;SDS011;49473;50.772;8.768;2023-11-19T13:38:56;12.67;;;3.83;;
2386;SDS011;49473;50.772;8.768;2023-11-19T13:41:24;11.70;;;3.17;;
2386;SDS011;49473;50.772;8.768;2023-11-19T13:43:52;9.17;;;2.73;;
2386;SDS011;49473;50.772;8.768;2023-11-19T13:46:20;10.70;;;3.00;;
2386;SDS011;49473;50.772;8.768;2023-11-19T13:48:47;5.30;;;2.00;;
2386;SDS011;49473;50.772;8.768;2023-11-19T13:51:14;6.47;;;2.10;;
2386;SDS011;49473;50.772;8.768;2023-11-19T13:53:41;8.40;;;3.53;;
2386;SDS011;49473;50.772;8.768;2023-11-19T13:56:09;8.83;;;3.70;;
2386;SDS011;49473;50.772;8.768;2023-11-19T13:58:36;10.20;;;3.77;;
2386;SDS011;49473;50.772;8.768;2023-11-19T14:01:05;7.87;;;3.17;;
2386;SDS011;49473;50.772;8.768;2023-11-19T14:03:32;8.57;;;3.20;;
2386;SDS011;49473;50.772;8.768;2023-11-19T14:05:58;11.20;;;3.60;;
2386;SDS011;49473;50.772;8.768;2023-11-19T14:08:25;5.10;;;2.27;;
2386;SDS011;49473;50.772;8.768;2023-11-19T14:10:52;5.33;;;2.10;;
2386;SDS011;49473;50.772;8.768;2023-11-19T14:13:21;7.67;;;2.33;;
2386;SDS011;49473;50.772;8.768;2023-11-19T14:15:48;6.33;;;2.37;;
2386;SDS011;49473;50.772;8.768;2023-11-19T14:18:17;6.40;;;2.47;;
2386;SDS011;49473;50.772;8.768;2023-11-19T14:20:44;6.47;;;2.33;;
2386;SDS011;49473;50.772;8.768;2023-11-19T14:23:11;4.80;;;2.23;;
2386;SDS011;49473;50.772;8.768;2023-11-19T14:25:37;6.60;;;2.90;;
2386;SDS011;49473;50.772;8.768;2023-11-19T14:28:04;8.00;;;2.93;;
2386;SDS011;49473;50.772;8.768;2023-11-19T14:30:31;7.47;;;2.80;;
2386;SDS011;49473;50.772;8.768;2023-11-19T14:32:58;8.43;;;2.87;;
2386;SDS011;49473;50.772;8.768;2023-11-19T14:35:27;8.23;;;2.60;;
2386;SDS011;49473;50.772;8.768;2023-11-19T14:37:55;5.17;;;2.20;;
2386;SDS011;49473;50.772;8.768;2023-11-19T14:40:21;8.90;;;2.40;;
2386;SDS011;49473;50.772;8.768;2023-11-19T14:42:48;5.10;;;2.17;;
2386;SDS011;49473;50.772;8.768;2023-11-19T14:45:15;9.13;;;2.33;;
2386;SDS011;49473;50.772;8.768;2023-11-19T14:47:42;9.77;;;2.90;;
2386;SDS011;49473;50.772;8.768;2023-11-19T14:50:10;11.00;;;2.77;;
2386;SDS011;49473;50.772;8.768;2023-11-19T14:52:38;7.57;;;2.60;;
2386;SDS011;49473;50.772;8.768;2023-11-19T14:55:05;7.17;;;2.47;;
2386;SDS011;49473;50.772;8.768;2023-11-19T14:57:32;9.23;;;2.90;;
2386;SDS011;49473;50.772;8.768;2023-11-19T15:00:01;6.73;;;2.80;;
2386;SDS011;49473;50.772;8.768;2023-11-19T15:02:37;6.10;;;2.53;;
2386;SDS011;49473;50.772;8.768;2023-11-19T15:05:05;6.03;;;2.70;;
2386;SDS011;49473;50.772;8.768;2023-11-19T15:07:32;5.80;;;2.67;;
2386;SDS011;49473;50.772;8.768;2023-11-19T15:10:02;9.37;;;2.60;;